createdAt,value
2022-10-10T00:02:18.305Z,18.40
2022-10-10T00:04:52.984Z,9.90
2022-10-10T00:07:24.657Z,17.80
2022-10-10T00:09:56.242Z,19.20
2022-10-10T00:12:28.081Z,17.70
2022-10-10T00:14:59.777Z,18.50
2022-10-10T00:17:31.506Z,18.30
2022-10-10T00:20:03.267Z,18.20
2022-10-10T00:22:34.987Z,12.60
2022-10-10T00:25:08.397Z,17.40
2022-10-10T00:27:40.373Z,17.90
2022-10-10T00:30:13.495Z,12.70
2022-10-10T00:32:45.334Z,17.80
2022-10-10T00:35:17.076Z,18.70
2022-10-10T00:37:48.697Z,17.50
2022-10-10T00:40:20.702Z,17.60
2022-10-10T00:42:52.668Z,20.50
2022-10-10T00:45:41.083Z,18.40
2022-10-10T00:48:16.378Z,19.30
2022-10-10T00:50:53.074Z,18.90
2022-10-10T00:53:28.287Z,19.50
2022-10-10T00:56:00.961Z,19.80
2022-10-10T00:58:34.877Z,20.30
2022-10-10T01:03:37.097Z,19.30
2022-10-10T01:06:09.401Z,21.50
2022-10-10T01:08:41.249Z,19.60
2022-10-10T01:11:28.885Z,22.20
2022-10-10T01:14:09.625Z,21.20
2022-10-10T01:16:48.242Z,22.30
2022-10-10T01:19:45.425Z,21.30
2022-10-10T01:22:28.278Z,22.40
2022-10-10T01:25:06.551Z,24.00
2022-10-10T01:27:43.680Z,23.10
2022-10-10T01:30:18.754Z,23.60
2022-10-10T01:32:55.456Z,24.50
2022-10-10T01:35:40.877Z,22.20
2022-10-10T01:38:23.422Z,23.40
2022-10-10T01:40:58.146Z,26.60
2022-10-10T01:43:31.027Z,23.80
2022-10-10T01:46:10.656Z,26.10
2022-10-10T01:48:44.047Z,26.10
2022-10-10T01:51:29.538Z,24.50
2022-10-10T01:54:29.055Z,25.30
2022-10-10T01:57:12.416Z,24.00
2022-10-10T01:59:54.798Z,25.90
2022-10-10T02:02:36.327Z,23.60
2022-10-10T02:05:15.861Z,20.40
2022-10-10T02:07:51.932Z,25.10
2022-10-10T02:10:27.918Z,23.90
2022-10-10T02:13:02.898Z,23.30
2022-10-10T02:15:40.961Z,21.80
2022-10-10T02:18:15.976Z,22.70
2022-10-10T02:20:49.508Z,23.30
2022-10-10T02:23:23.374Z,22.30
2022-10-10T02:25:57.397Z,22.10
2022-10-10T02:28:34.827Z,19.80
2022-10-10T02:31:10.109Z,22.00
2022-10-10T02:33:51.446Z,21.90
2022-10-10T02:36:25.284Z,21.90
2022-10-10T02:38:59.307Z,19.60
2022-10-10T02:41:32.417Z,20.10
2022-10-10T02:44:04.215Z,18.80
2022-10-10T02:46:36.038Z,19.50
2022-10-10T02:49:10.950Z,21.50
2022-10-10T02:51:42.921Z,22.10
2022-10-10T02:54:14.573Z,22.70
2022-10-10T02:56:46.279Z,22.40
2022-10-10T02:59:18.279Z,23.50
2022-10-10T03:01:50.347Z,22.00
2022-10-10T03:04:22.016Z,21.50
2022-10-10T03:06:54.538Z,15.50
2022-10-10T03:09:26.334Z,21.20
2022-10-10T03:11:58.009Z,20.30
2022-10-10T03:14:29.870Z,21.10
2022-10-10T03:17:01.562Z,20.90
2022-10-10T03:19:33.585Z,20.40
2022-10-10T03:22:08.013Z,20.60
2022-10-10T03:24:39.694Z,20.10
2022-10-10T03:27:11.430Z,22.20
2022-10-10T03:29:43.122Z,20.70
2022-10-10T03:32:14.695Z,20.50
2022-10-10T03:34:47.126Z,21.60
2022-10-10T03:37:18.946Z,20.70
2022-10-10T03:39:50.608Z,22.20
2022-10-10T03:42:22.207Z,23.30
2022-10-10T03:44:53.953Z,22.40
2022-10-10T03:47:25.549Z,23.70
2022-10-10T03:49:57.250Z,22.00
2022-10-10T03:52:28.996Z,24.10
2022-10-10T03:55:00.897Z,22.80
2022-10-10T03:57:33.313Z,22.10
2022-10-10T04:00:05.572Z,16.90
2022-10-10T04:02:37.304Z,22.00
2022-10-10T04:05:10.214Z,21.40
2022-10-10T04:07:42.526Z,21.00
2022-10-10T04:10:14.421Z,22.50
2022-10-10T04:12:46.114Z,16.30
2022-10-10T04:15:17.956Z,20.20
2022-10-10T04:17:49.622Z,21.60
2022-10-10T04:20:21.540Z,19.90
2022-10-10T04:22:53.771Z,21.10
2022-10-10T04:25:25.677Z,19.80
2022-10-10T04:28:01.039Z,19.00
2022-10-10T04:30:35.465Z,19.30
2022-10-10T04:33:09.296Z,19.80
2022-10-10T04:35:41.017Z,20.50
2022-10-10T04:38:12.665Z,20.10
2022-10-10T04:40:44.522Z,18.90
2022-10-10T04:43:16.199Z,21.10
2022-10-10T04:45:48.452Z,20.00
2022-10-10T04:48:20.078Z,19.80
2022-10-10T04:50:56.313Z,19.30
2022-10-10T04:53:28.725Z,18.40
2022-10-10T04:56:00.490Z,20.40
2022-10-10T04:58:32.347Z,20.30
2022-10-10T05:01:04.717Z,19.80
2022-10-10T05:03:37.342Z,19.70
2022-10-10T05:06:09.333Z,20.10
2022-10-10T05:08:41.063Z,18.40
2022-10-10T05:11:12.758Z,19.40
2022-10-10T05:13:44.899Z,18.60
2022-10-10T05:16:16.670Z,18.40
2022-10-10T05:18:49.077Z,20.30
2022-10-10T05:21:21.943Z,20.30
2022-10-10T05:23:53.824Z,20.60
2022-10-10T05:26:25.630Z,21.20
2022-10-10T05:28:57.386Z,20.50
2022-10-10T05:31:29.146Z,20.70
2022-10-10T05:34:00.930Z,19.30
2022-10-10T05:36:32.727Z,19.30
2022-10-10T05:39:04.564Z,20.30
2022-10-10T05:41:36.589Z,20.20
2022-10-10T05:44:08.354Z,20.30
2022-10-10T05:46:40.305Z,20.20
2022-10-10T05:49:12.473Z,20.60
2022-10-10T05:51:46.562Z,20.90
2022-10-10T05:54:18.334Z,19.10
2022-10-10T05:56:50.072Z,19.30
2022-10-10T05:59:22.189Z,20.50
2022-10-10T06:01:54.277Z,21.00
2022-10-10T06:04:27.572Z,12.40
2022-10-10T06:06:59.305Z,19.60
2022-10-10T06:09:31.669Z,19.90
2022-10-10T06:12:03.559Z,13.70
2022-10-10T06:14:35.470Z,12.90
2022-10-10T06:17:07.521Z,17.60
2022-10-10T06:19:39.202Z,17.80
2022-10-10T06:22:10.984Z,17.60
2022-10-10T06:24:42.648Z,17.90
2022-10-10T06:27:14.901Z,17.80
2022-10-10T06:29:46.662Z,16.30
2022-10-10T06:32:18.362Z,17.20
2022-10-10T06:34:50.126Z,17.40
2022-10-10T06:37:21.882Z,14.80
2022-10-10T06:39:53.618Z,15.70
2022-10-10T06:42:25.389Z,15.70
2022-10-10T06:45:02.341Z,16.20
2022-10-10T06:47:34.642Z,15.30
2022-10-10T06:50:07.027Z,14.90
2022-10-10T06:52:41.275Z,14.00
2022-10-10T06:55:13.269Z,15.50
2022-10-10T06:57:45.026Z,14.20
2022-10-10T07:00:17.802Z,16.20
2022-10-10T07:05:20.995Z,14.60
2022-10-10T07:07:54.330Z,14.90
2022-10-10T07:10:26.309Z,16.40
2022-10-10T07:12:58.102Z,15.70
2022-10-10T07:15:29.872Z,13.90
2022-10-10T07:18:01.980Z,16.00
2022-10-10T07:20:34.303Z,9.80
2022-10-10T07:23:06.667Z,14.10
2022-10-10T07:25:43.049Z,15.50
2022-10-10T07:28:15.304Z,15.10
2022-10-10T07:30:49.231Z,13.90
2022-10-10T07:33:21.438Z,15.20
2022-10-10T07:35:56.396Z,14.50
2022-10-10T07:38:28.170Z,14.40
2022-10-10T07:41:00.091Z,10.00
2022-10-10T07:43:31.889Z,15.40
2022-10-10T07:46:07.046Z,16.30
2022-10-10T07:48:41.533Z,15.80
2022-10-10T07:51:14.744Z,15.30
2022-10-10T07:53:46.664Z,14.90
2022-10-10T07:56:19.454Z,16.90
2022-10-10T08:01:21.908Z,15.10
2022-10-10T08:03:53.727Z,14.30
2022-10-10T08:06:25.526Z,16.00
2022-10-10T08:08:57.205Z,15.50
2022-10-10T08:11:28.858Z,16.00
2022-10-10T08:14:00.831Z,15.60
2022-10-10T08:16:32.781Z,16.30
2022-10-10T08:19:04.739Z,15.10
2022-10-10T08:21:36.694Z,15.60
2022-10-10T08:24:09.491Z,15.70
2022-10-10T08:29:11.430Z,17.30
2022-10-10T08:31:43.306Z,14.40
2022-10-10T08:34:15.551Z,15.30
2022-10-10T08:36:47.442Z,15.10
2022-10-10T08:39:20.023Z,15.80
2022-10-10T08:41:53.932Z,15.40
2022-10-10T08:44:30.756Z,15.70
2022-10-10T08:47:06.660Z,14.70
2022-10-10T08:49:44.103Z,14.50
2022-10-10T08:52:29.004Z,16.60
2022-10-10T08:55:03.524Z,14.70
2022-10-10T08:57:43.667Z,15.40
2022-10-10T09:00:20.480Z,15.10
2022-10-10T09:02:56.958Z,12.90
2022-10-10T09:05:42.253Z,14.90
2022-10-10T09:08:34.490Z,14.70
2022-10-10T09:11:14.243Z,15.60
2022-10-10T09:13:59.346Z,13.10
2022-10-10T09:16:39.125Z,14.20
2022-10-10T09:19:24.570Z,13.70
2022-10-10T09:22:02.759Z,14.50
2022-10-10T09:24:42.608Z,14.90
2022-10-10T09:27:18.161Z,13.70
2022-10-10T09:29:54.816Z,14.20
2022-10-10T09:32:30.694Z,12.10
2022-10-10T09:35:15.504Z,12.00
2022-10-10T09:37:49.866Z,12.50
2022-10-10T09:40:30.317Z,13.00
2022-10-10T09:43:10.962Z,13.00
2022-10-10T09:45:50.057Z,12.50
2022-10-10T09:48:23.006Z,11.80
2022-10-10T09:50:54.884Z,12.80
2022-10-10T09:53:27.274Z,11.70
2022-10-10T09:55:59.636Z,11.80
2022-10-10T09:58:37.433Z,10.70
2022-10-10T10:01:21.714Z,10.50
2022-10-10T10:04:30.129Z,10.50
2022-10-10T10:07:28.227Z,9.90
2022-10-10T10:10:02.288Z,10.20
2022-10-10T10:12:44.651Z,10.60
2022-10-10T10:15:23.279Z,9.80
2022-10-10T10:18:24.610Z,9.90
2022-10-10T10:21:10.633Z,10.30
2022-10-10T10:23:50.560Z,9.30
2022-10-10T10:26:25.408Z,9.70
2022-10-10T10:28:59.014Z,9.00
2022-10-10T10:31:45.046Z,9.30
2022-10-10T10:34:35.319Z,9.60
2022-10-10T10:37:18.888Z,9.20
2022-10-10T10:40:08.103Z,9.20
2022-10-10T10:42:56.015Z,8.70
2022-10-10T10:45:35.457Z,9.50
2022-10-10T10:48:20.756Z,8.90
2022-10-10T10:50:56.627Z,9.70
2022-10-10T10:53:38.719Z,8.60
2022-10-10T10:56:20.684Z,9.10
2022-10-10T11:02:06.368Z,9.10
2022-10-10T11:05:22.745Z,11.20
2022-10-10T11:07:55.032Z,9.30
2022-10-10T11:10:35.761Z,8.50
2022-10-10T11:13:16.289Z,11.70
2022-10-10T11:16:06.039Z,9.60
2022-10-10T11:18:44.443Z,8.90
2022-10-10T11:21:20.226Z,8.50
2022-10-10T11:23:57.568Z,8.10
2022-10-10T11:26:33.011Z,9.40
2022-10-10T11:29:10.634Z,15.70
2022-10-10T11:31:48.842Z,10.20
2022-10-10T11:34:25.410Z,8.80
2022-10-10T11:37:03.107Z,7.50
2022-10-10T11:39:40.663Z,7.90
2022-10-10T11:42:19.813Z,7.90
2022-10-10T11:44:58.675Z,7.70
2022-10-10T11:47:36.259Z,7.00
2022-10-10T11:50:16.821Z,7.60
2022-10-10T11:52:53.373Z,7.10
2022-10-10T11:55:32.477Z,6.70
2022-10-10T11:58:27.994Z,7.60
2022-10-10T12:01:05.517Z,7.90
2022-10-10T12:03:37.451Z,7.30
2022-10-10T12:06:18.494Z,7.30
2022-10-10T12:08:58.168Z,7.80
2022-10-10T12:11:34.630Z,8.10
2022-10-10T12:14:10.969Z,8.00
2022-10-10T12:16:43.116Z,7.40
2022-10-10T12:19:21.006Z,6.70
2022-10-10T12:21:59.370Z,7.00
2022-10-10T12:24:32.983Z,7.90
2022-10-10T12:27:46.195Z,7.80
2022-10-10T12:30:26.811Z,7.70
2022-10-10T12:32:58.868Z,7.50
2022-10-10T12:35:33.847Z,7.20
2022-10-10T12:38:15.280Z,7.70
2022-10-10T12:41:14.647Z,8.40
2022-10-10T12:44:14.053Z,8.00
2022-10-10T12:46:48.824Z,8.60
2022-10-10T12:49:25.567Z,7.60
2022-10-10T12:52:05.337Z,7.70
2022-10-10T12:54:43.776Z,8.70
2022-10-10T12:57:24.722Z,7.90
2022-10-10T13:00:01.798Z,7.50
2022-10-10T13:02:35.288Z,9.10
2022-10-10T13:05:12.775Z,9.00
2022-10-10T13:07:46.423Z,8.90
2022-10-10T13:10:26.014Z,8.30
2022-10-10T13:13:07.220Z,7.80
2022-10-10T13:15:39.112Z,7.50
2022-10-10T13:18:10.878Z,8.60
2022-10-10T13:20:43.390Z,8.10
2022-10-10T13:23:16.484Z,8.70
2022-10-10T13:25:48.356Z,8.70
2022-10-10T13:28:22.132Z,8.00
2022-10-10T13:30:54.620Z,7.60
2022-10-10T13:33:33.797Z,8.40
2022-10-10T13:36:19.638Z,8.80
2022-10-10T13:38:52.711Z,7.10
2022-10-10T13:41:25.137Z,6.90
2022-10-10T13:43:57.562Z,7.50
2022-10-10T13:46:34.693Z,7.70
2022-10-10T13:49:22.387Z,7.40
2022-10-10T13:52:04.686Z,7.30
2022-10-10T13:54:46.310Z,8.80
2022-10-10T13:57:22.225Z,9.10
2022-10-10T14:00:07.636Z,9.60
2022-10-10T14:02:43.268Z,13.60
2022-10-10T14:05:23.356Z,13.40
2022-10-10T14:07:55.894Z,17.30
2022-10-10T14:13:00.883Z,11.80
2022-10-10T14:15:45.489Z,10.70
2022-10-10T14:18:22.102Z,9.50
2022-10-10T14:20:55.590Z,10.20
2022-10-10T14:23:27.255Z,9.20
2022-10-10T14:26:00.595Z,9.00
2022-10-10T14:28:34.574Z,9.30
2022-10-10T14:31:08.206Z,11.10
2022-10-10T14:33:40.012Z,9.70
2022-10-10T14:36:14.657Z,9.00
2022-10-10T14:38:46.344Z,10.90
2022-10-10T14:41:18.281Z,10.20
2022-10-10T14:43:50.257Z,9.00
2022-10-10T14:46:22.866Z,9.10
2022-10-10T14:48:55.150Z,9.40
2022-10-10T14:51:34.519Z,10.00
2022-10-10T14:54:11.107Z,9.90
2022-10-10T14:57:08.881Z,9.60
2022-10-10T14:59:47.627Z,10.00
2022-10-10T15:02:23.083Z,9.10
2022-10-10T15:04:55.828Z,9.60
2022-10-10T15:07:27.961Z,9.70
2022-10-10T15:12:53.288Z,11.60
2022-10-10T15:15:25.473Z,9.80
2022-10-10T15:18:00.313Z,10.20
2022-10-10T15:20:33.073Z,10.40
2022-10-10T15:23:07.536Z,10.60
2022-10-10T15:25:42.552Z,10.20
2022-10-10T15:28:14.589Z,11.00
2022-10-10T15:30:49.851Z,11.20
2022-10-10T15:33:22.060Z,10.40
2022-10-10T15:36:09.925Z,10.30
2022-10-10T15:38:43.002Z,11.20
2022-10-10T15:41:16.877Z,11.20
2022-10-10T15:43:54.519Z,10.30
2022-10-10T15:46:28.349Z,11.80
2022-10-10T15:49:02.844Z,10.40
2022-10-10T15:51:35.296Z,10.00
2022-10-10T15:54:07.806Z,10.70
2022-10-10T15:56:39.998Z,10.90
2022-10-10T15:59:15.143Z,10.60
2022-10-10T16:01:47.657Z,10.20
2022-10-10T16:04:19.917Z,9.50
2022-10-10T16:06:54.404Z,11.80
2022-10-10T16:09:37.803Z,11.10
2022-10-10T16:12:10.740Z,10.90
2022-10-10T16:14:44.756Z,11.20
2022-10-10T16:17:22.200Z,11.40
2022-10-10T16:19:55.383Z,10.80
2022-10-10T16:22:27.436Z,10.70
2022-10-10T16:27:52.752Z,11.20
2022-10-10T16:32:55.619Z,10.50
2022-10-10T16:35:27.682Z,11.60
2022-10-10T16:38:00.712Z,11.80
2022-10-10T16:40:35.721Z,11.00
2022-10-10T16:43:07.586Z,10.90
2022-10-10T16:45:44.470Z,11.80
2022-10-10T16:48:16.667Z,11.30
2022-10-10T16:50:48.668Z,13.00
2022-10-10T16:53:20.557Z,12.00
2022-10-10T16:55:52.558Z,13.30
2022-10-10T16:58:24.857Z,12.30
2022-10-10T17:00:59.394Z,12.30
2022-10-10T17:03:34.358Z,12.20
2022-10-10T17:06:09.806Z,11.80
2022-10-10T17:08:44.142Z,12.50
2022-10-10T17:11:17.752Z,12.50
2022-10-10T17:13:50.548Z,12.90
2022-10-10T17:19:14.319Z,13.50
2022-10-10T17:21:47.156Z,9.80
2022-10-10T17:24:19.762Z,14.80
2022-10-10T17:26:51.706Z,14.10
2022-10-10T17:29:24.824Z,15.00
2022-10-10T17:31:57.470Z,14.10
2022-10-10T17:34:29.413Z,15.10
2022-10-10T17:37:01.808Z,15.70
2022-10-10T17:39:34.341Z,16.60
2022-10-10T17:42:06.525Z,13.80
2022-10-10T17:44:44.839Z,15.70
2022-10-10T17:47:21.471Z,16.30
2022-10-10T17:49:53.452Z,15.30
2022-10-10T17:52:26.330Z,17.70
2022-10-10T17:54:59.247Z,17.20
2022-10-10T17:57:33.350Z,16.70
2022-10-10T18:00:07.510Z,16.70
2022-10-10T18:02:39.260Z,19.10
2022-10-10T18:05:11.538Z,18.70
2022-10-10T18:07:45.118Z,19.20
2022-10-10T18:10:17.090Z,19.10
2022-10-10T18:12:49.068Z,19.80
2022-10-10T18:15:21.059Z,19.40
2022-10-10T18:17:52.915Z,19.50
2022-10-10T18:20:24.864Z,17.50
2022-10-10T18:23:00.562Z,17.60
2022-10-10T18:25:32.719Z,19.10
2022-10-10T18:28:04.529Z,18.70
2022-10-10T18:30:36.217Z,18.70
2022-10-10T18:33:07.878Z,18.30
2022-10-10T18:35:44.103Z,19.90
2022-10-10T18:38:16.771Z,18.80
2022-10-10T18:40:48.726Z,25.80
2022-10-10T18:43:20.860Z,23.60
2022-10-10T18:45:54.600Z,23.50
2022-10-10T18:48:27.042Z,23.10
2022-10-10T18:51:05.776Z,23.00
2022-10-10T18:53:40.375Z,23.30
2022-10-10T18:56:14.575Z,22.60
2022-10-10T18:58:47.353Z,25.00
2022-10-10T19:01:24.952Z,25.60
2022-10-10T19:03:57.772Z,26.00
2022-10-10T19:06:29.877Z,25.00
2022-10-10T19:09:03.659Z,25.90
2022-10-10T19:11:39.219Z,24.70
2022-10-10T19:14:16.461Z,25.40
2022-10-10T19:16:49.809Z,24.10
2022-10-10T19:19:21.604Z,25.10
2022-10-10T19:21:54.154Z,25.50
2022-10-10T19:24:27.577Z,25.90
2022-10-10T19:27:00.888Z,26.20
2022-10-10T19:29:34.704Z,26.70
2022-10-10T19:32:09.164Z,26.80
2022-10-10T19:34:43.311Z,26.70
2022-10-10T19:37:19.768Z,27.60
2022-10-10T19:39:51.855Z,26.70
2022-10-10T19:42:24.985Z,26.90
2022-10-10T19:44:57.005Z,27.10
2022-10-10T19:47:30.046Z,25.70
2022-10-10T19:50:03.796Z,24.40
2022-10-10T19:52:36.242Z,25.80
2022-10-10T19:55:09.665Z,25.30
2022-10-10T19:57:42.910Z,24.10
2022-10-10T20:00:18.726Z,24.00
2022-10-10T20:02:52.374Z,24.60
2022-10-10T20:05:24.533Z,22.00
2022-10-10T20:07:56.556Z,22.90
2022-10-10T20:10:29.132Z,23.10
2022-10-10T20:13:01.182Z,23.70
2022-10-10T20:15:33.391Z,24.10
2022-10-10T20:18:05.642Z,26.10
2022-10-10T20:20:40.443Z,25.30
2022-10-10T20:23:13.922Z,27.10
2022-10-10T20:25:46.845Z,27.70
2022-10-10T20:28:20.923Z,27.40
2022-10-10T20:30:54.050Z,26.00
2022-10-10T20:35:56.393Z,25.30
2022-10-10T20:38:30.911Z,26.40
2022-10-10T20:41:07.280Z,28.00
2022-10-10T20:43:41.259Z,25.40
2022-10-10T20:46:15.391Z,26.90
2022-10-10T20:48:47.302Z,26.50
2022-10-10T20:51:19.156Z,26.10
2022-10-10T20:53:57.116Z,29.50
2022-10-10T20:56:30.538Z,27.30
2022-10-10T20:59:02.739Z,26.50
2022-10-10T21:01:35.527Z,26.10
2022-10-10T21:04:11.398Z,24.70
2022-10-10T21:06:43.806Z,26.40
2022-10-10T21:09:16.707Z,26.00
2022-10-10T21:11:51.015Z,26.10
2022-10-10T21:14:23.402Z,25.10
2022-10-10T21:16:55.146Z,25.70
2022-10-10T21:19:26.870Z,25.10
2022-10-10T21:21:58.601Z,26.10
2022-10-10T21:24:30.734Z,25.60
2022-10-10T21:27:02.799Z,25.40
2022-10-10T21:29:34.732Z,19.20
2022-10-10T21:32:06.616Z,26.30
2022-10-10T21:34:38.291Z,24.50
2022-10-10T21:37:10.023Z,26.60
2022-10-10T21:39:41.685Z,25.10
2022-10-10T21:42:13.352Z,25.70
2022-10-10T21:44:45.525Z,26.00
2022-10-10T21:47:17.178Z,24.60
2022-10-10T21:49:48.764Z,26.00
2022-10-10T21:52:20.771Z,27.80
2022-10-10T21:54:52.639Z,25.10
2022-10-10T21:57:24.471Z,26.60
2022-10-10T21:59:56.268Z,25.90
2022-10-10T22:02:28.042Z,28.60
2022-10-10T22:05:02.404Z,26.30
2022-10-10T22:07:34.735Z,26.10
2022-10-10T22:10:07.998Z,26.50
2022-10-10T22:12:40.063Z,26.80
2022-10-10T22:15:13.907Z,26.70
2022-10-10T22:17:45.983Z,25.40
2022-10-10T22:20:18.585Z,25.10
2022-10-10T22:22:50.602Z,26.40
2022-10-10T22:25:22.568Z,25.20
2022-10-10T22:27:57.242Z,18.60
2022-10-10T22:30:29.172Z,25.20
2022-10-10T22:33:00.944Z,26.60
2022-10-10T22:35:32.902Z,26.40
2022-10-10T22:38:05.221Z,24.50
2022-10-10T22:40:37.015Z,24.80
2022-10-10T22:43:09.151Z,26.30
2022-10-10T22:45:40.869Z,21.00
2022-10-10T22:48:12.578Z,24.80
2022-10-10T22:50:44.265Z,23.40
2022-10-10T22:53:16.427Z,23.30
2022-10-10T22:55:48.079Z,22.50
2022-10-10T22:58:19.721Z,22.70
2022-10-10T23:00:51.828Z,22.30
2022-10-10T23:03:23.731Z,22.60
2022-10-10T23:05:55.384Z,21.10
2022-10-10T23:08:28.350Z,21.50
2022-10-10T23:11:01.123Z,20.70
2022-10-10T23:13:33.340Z,21.20
2022-10-10T23:16:05.290Z,19.70
2022-10-10T23:18:37.357Z,13.50
2022-10-10T23:21:09.080Z,18.00
2022-10-10T23:23:41.087Z,19.90
2022-10-10T23:26:13.522Z,13.30
2022-10-10T23:28:45.841Z,17.90
2022-10-10T23:31:17.610Z,18.60
2022-10-10T23:33:49.329Z,16.50
2022-10-10T23:36:20.965Z,17.50
2022-10-10T23:38:52.984Z,18.80
2022-10-10T23:41:24.850Z,18.40
2022-10-10T23:43:56.567Z,17.10
2022-10-10T23:46:28.264Z,17.50
2022-10-10T23:48:59.887Z,17.80
2022-10-10T23:51:31.693Z,18.60
2022-10-10T23:54:04.660Z,18.10
2022-10-10T23:56:36.482Z,18.00
2022-10-10T23:59:08.107Z,18.80
